Terminal Aerodrome Forecast
Issued by NWS Albany, NY

Home | Current Version | Previous Version | Text Only | Print | Product List | Glossary On
Versions: 1 2 3 4 5 6 7 8 9 10 11 12 13 14 15 16 17 18 19
763
FTUS41 KALY 100530
TAFPOU
TAF
KPOU 100530Z 1006/1106 23003KT P6SM VCSH BKN060 OVC100
      TEMPO 1008/1012 5SM -SHSN BR BKN030 OVC050
     FM101400 26005KT P6SM VCSH BKN040
     FM102200 27005KT P6SM SCT040 SCT070=

USA.gov is the U.S. government's official web portal to all federal, state and local government web resources and services.